sensor_id;sensor_type;location;lat;lon;timestamp;P1;durP1;ratioP1;P2;durP2;ratioP2
34204;SDS011;20471;49.680;20.074;2022-11-15T00:00:55;80.42;;;47.50;;
34204;SDS011;20471;49.680;20.074;2022-11-15T00:03:23;77.22;;;48.40;;
34204;SDS011;20471;49.680;20.074;2022-11-15T00:05:52;98.40;;;61.88;;
34204;SDS011;20471;49.680;20.074;2022-11-15T00:08:19;114.37;;;70.57;;
34204;SDS011;20471;49.680;20.074;2022-11-15T00:10:55;95.25;;;59.77;;
34204;SDS011;20471;49.680;20.074;2022-11-15T00:13:23;104.53;;;64.05;;
34204;SDS011;20471;49.680;20.074;2022-11-15T00:15:50;112.75;;;68.62;;
34204;SDS011;20471;49.680;20.074;2022-11-15T00:18:17;111.75;;;65.22;;
34204;SDS011;20471;49.680;20.074;2022-11-15T00:20:44;103.70;;;62.33;;
34204;SDS011;20471;49.680;20.074;2022-11-15T00:23:10;80.65;;;49.00;;
34204;SDS011;20471;49.680;20.074;2022-11-15T00:25:37;70.28;;;43.40;;
34204;SDS011;20471;49.680;20.074;2022-11-15T00:28:04;60.35;;;40.15;;
34204;SDS011;20471;49.680;20.074;2022-11-15T00:30:30;64.32;;;40.52;;
34204;SDS011;20471;49.680;20.074;2022-11-15T00:33:06;68.10;;;41.30;;
34204;SDS011;20471;49.680;20.074;2022-11-15T00:35:35;77.67;;;46.23;;
34204;SDS011;20471;49.680;20.074;2022-11-15T00:38:01;76.35;;;46.80;;
34204;SDS011;20471;49.680;20.074;2022-11-15T00:40:29;78.52;;;46.45;;
34204;SDS011;20471;49.680;20.074;2022-11-15T00:42:56;62.75;;;38.80;;
34204;SDS011;20471;49.680;20.074;2022-11-15T00:45:23;60.33;;;39.58;;
34204;SDS011;20471;49.680;20.074;2022-11-15T00:47:51;57.00;;;34.25;;
34204;SDS011;20471;49.680;20.074;2022-11-15T00:50:18;49.70;;;32.33;;
34204;SDS011;20471;49.680;20.074;2022-11-15T00:52:45;47.67;;;30.95;;
34204;SDS011;20471;49.680;20.074;2022-11-15T00:55:15;45.65;;;29.32;;
34204;SDS011;20471;49.680;20.074;2022-11-15T00:57:43;45.08;;;32.13;;
34204;SDS011;20471;49.680;20.074;2022-11-15T01:00:10;49.95;;;31.82;;
34204;SDS011;20471;49.680;20.074;2022-11-15T01:02:38;52.55;;;33.80;;
34204;SDS011;20471;49.680;20.074;2022-11-15T01:05:04;53.13;;;33.80;;
34204;SDS011;20471;49.680;20.074;2022-11-15T01:07:32;48.90;;;35.17;;
34204;SDS011;20471;49.680;20.074;2022-11-15T01:09:58;54.98;;;35.90;;
34204;SDS011;20471;49.680;20.074;2022-11-15T01:12:25;45.43;;;31.40;;
34204;SDS011;20471;49.680;20.074;2022-11-15T01:14:51;49.93;;;32.40;;
34204;SDS011;20471;49.680;20.074;2022-11-15T01:17:18;54.03;;;34.75;;
34204;SDS011;20471;49.680;20.074;2022-11-15T01:19:44;51.65;;;34.08;;
34204;SDS011;20471;49.680;20.074;2022-11-15T01:22:11;51.35;;;34.00;;
34204;SDS011;20471;49.680;20.074;2022-11-15T01:24:37;51.13;;;32.15;;
34204;SDS011;20471;49.680;20.074;2022-11-15T01:27:04;44.98;;;29.95;;
34204;SDS011;20471;49.680;20.074;2022-11-15T01:29:31;43.42;;;28.15;;
34204;SDS011;20471;49.680;20.074;2022-11-15T01:31:57;41.18;;;27.67;;
34204;SDS011;20471;49.680;20.074;2022-11-15T01:34:24;41.33;;;28.12;;
34204;SDS011;20471;49.680;20.074;2022-11-15T01:36:51;40.05;;;28.83;;
34204;SDS011;20471;49.680;20.074;2022-11-15T01:39:17;41.40;;;28.27;;
34204;SDS011;20471;49.680;20.074;2022-11-15T01:41:44;41.20;;;28.83;;
34204;SDS011;20471;49.680;20.074;2022-11-15T01:47:18;50.48;;;34.63;;
34204;SDS011;20471;49.680;20.074;2022-11-15T01:49:53;50.85;;;34.03;;
34204;SDS011;20471;49.680;20.074;2022-11-15T01:52:26;50.00;;;33.92;;
34204;SDS011;20471;49.680;20.074;2022-11-15T01:55:00;49.83;;;33.90;;
34204;SDS011;20471;49.680;20.074;2022-11-15T01:57:46;45.25;;;32.35;;
34204;SDS011;20471;49.680;20.074;2022-11-15T02:00:16;42.83;;;30.55;;
34204;SDS011;20471;49.680;20.074;2022-11-15T02:02:43;42.53;;;29.82;;
34204;SDS011;20471;49.680;20.074;2022-11-15T02:05:10;42.90;;;30.50;;
34204;SDS011;20471;49.680;20.074;2022-11-15T02:07:37;43.95;;;30.40;;
34204;SDS011;20471;49.680;20.074;2022-11-15T02:10:06;39.88;;;28.62;;
34204;SDS011;20471;49.680;20.074;2022-11-15T02:12:38;42.17;;;28.52;;
34204;SDS011;20471;49.680;20.074;2022-11-15T02:15:06;37.53;;;24.95;;
34204;SDS011;20471;49.680;20.074;2022-11-15T02:37:39;36.33;;;22.95;;
34204;SDS011;20471;49.680;20.074;2022-11-15T02:43:10;33.85;;;24.55;;
34204;SDS011;20471;49.680;20.074;2022-11-15T02:48:57;32.95;;;23.77;;
34204;SDS011;20471;49.680;20.074;2022-11-15T02:51:24;34.55;;;24.67;;
34204;SDS011;20471;49.680;20.074;2022-11-15T02:53:50;35.58;;;25.52;;
34204;SDS011;20471;49.680;20.074;2022-11-15T02:56:17;35.28;;;24.72;;
34204;SDS011;20471;49.680;20.074;2022-11-15T03:07:36;29.85;;;23.05;;
34204;SDS011;20471;49.680;20.074;2022-11-15T03:10:09;31.35;;;22.50;;
34204;SDS011;20471;49.680;20.074;2022-11-15T03:12:57;28.95;;;21.48;;
34204;SDS011;20471;49.680;20.074;2022-11-15T03:15:28;36.05;;;24.43;;
34204;SDS011;20471;49.680;20.074;2022-11-15T03:20:29;39.20;;;26.90;;
34204;SDS011;20471;49.680;20.074;2022-11-15T03:23:00;39.18;;;26.48;;
34204;SDS011;20471;49.680;20.074;2022-11-15T03:25:33;37.73;;;24.23;;
34204;SDS011;20471;49.680;20.074;2022-11-15T03:28:03;37.05;;;25.20;;
34204;SDS011;20471;49.680;20.074;2022-11-15T03:30:32;36.42;;;24.75;;
34204;SDS011;20471;49.680;20.074;2022-11-15T03:33:03;37.00;;;24.10;;
34204;SDS011;20471;49.680;20.074;2022-11-15T03:35:32;32.35;;;22.15;;
34204;SDS011;20471;49.680;20.074;2022-11-15T03:43:19;26.07;;;17.80;;
34204;SDS011;20471;49.680;20.074;2022-11-15T03:46:02;40.60;;;27.55;;
34204;SDS011;20471;49.680;20.074;2022-11-15T03:51:18;45.55;;;29.05;;
34204;SDS011;20471;49.680;20.074;2022-11-15T03:53:45;41.28;;;24.95;;
34204;SDS011;20471;49.680;20.074;2022-11-15T03:56:12;29.87;;;21.20;;
34204;SDS011;20471;49.680;20.074;2022-11-15T03:58:39;27.52;;;18.15;;
34204;SDS011;20471;49.680;20.074;2022-11-15T04:01:05;28.80;;;18.25;;
34204;SDS011;20471;49.680;20.074;2022-11-15T04:03:32;32.88;;;18.67;;
34204;SDS011;20471;49.680;20.074;2022-11-15T04:05:58;36.30;;;21.05;;
34204;SDS011;20471;49.680;20.074;2022-11-15T04:08:25;49.38;;;29.87;;
34204;SDS011;20471;49.680;20.074;2022-11-15T04:10:51;44.13;;;27.73;;
34204;SDS011;20471;49.680;20.074;2022-11-15T04:13:18;38.30;;;27.73;;
34204;SDS011;20471;49.680;20.074;2022-11-15T04:15:44;45.38;;;27.37;;
34204;SDS011;20471;49.680;20.074;2022-11-15T04:18:11;45.05;;;25.90;;
34204;SDS011;20471;49.680;20.074;2022-11-15T04:20:37;36.33;;;22.00;;
34204;SDS011;20471;49.680;20.074;2022-11-15T04:23:22;38.70;;;24.52;;
34204;SDS011;20471;49.680;20.074;2022-11-15T04:26:11;35.25;;;22.48;;
34204;SDS011;20471;49.680;20.074;2022-11-15T04:28:42;32.95;;;21.25;;
34204;SDS011;20471;49.680;20.074;2022-11-15T04:31:29;27.40;;;20.25;;
34204;SDS011;20471;49.680;20.074;2022-11-15T04:33:55;31.87;;;19.75;;
34204;SDS011;20471;49.680;20.074;2022-11-15T04:36:22;25.88;;;18.37;;
34204;SDS011;20471;49.680;20.074;2022-11-15T04:39:07;30.32;;;18.92;;
34204;SDS011;20471;49.680;20.074;2022-11-15T04:41:34;29.32;;;19.95;;
34204;SDS011;20471;49.680;20.074;2022-11-15T04:44:01;31.50;;;22.70;;
34204;SDS011;20471;49.680;20.074;2022-11-15T04:46:28;35.13;;;24.57;;
34204;SDS011;20471;49.680;20.074;2022-11-15T04:48:54;29.40;;;21.60;;
34204;SDS011;20471;49.680;20.074;2022-11-15T04:51:21;30.23;;;20.20;;
34204;SDS011;20471;49.680;20.074;2022-11-15T04:53:48;28.20;;;19.77;;
34204;SDS011;20471;49.680;20.074;2022-11-15T04:56:14;30.32;;;21.37;;
34204;SDS011;20471;49.680;20.074;2022-11-15T04:58:41;45.12;;;30.12;;
34204;SDS011;20471;49.680;20.074;2022-11-15T05:01:08;53.05;;;37.95;;
34204;SDS011;20471;49.680;20.074;2022-11-15T05:03:37;50.78;;;35.00;;
34204;SDS011;20471;49.680;20.074;2022-11-15T05:06:22;59.15;;;40.63;;
34204;SDS011;20471;49.680;20.074;2022-11-15T05:08:49;63.95;;;41.15;;
34204;SDS011;20471;49.680;20.074;2022-11-15T05:11:16;58.20;;;41.45;;
34204;SDS011;20471;49.680;20.074;2022-11-15T05:13:43;54.20;;;36.53;;
34204;SDS011;20471;49.680;20.074;2022-11-15T05:16:09;51.68;;;33.48;;
34204;SDS011;20471;49.680;20.074;2022-11-15T05:18:36;45.43;;;29.48;;
34204;SDS011;20471;49.680;20.074;2022-11-15T05:21:05;41.73;;;25.80;;
34204;SDS011;20471;49.680;20.074;2022-11-15T05:23:37;55.00;;;33.53;;
34204;SDS011;20471;49.680;20.074;2022-11-15T05:26:05;81.60;;;43.50;;
34204;SDS011;20471;49.680;20.074;2022-11-15T05:28:33;74.97;;;41.88;;
34204;SDS011;20471;49.680;20.074;2022-11-15T05:33:37;69.37;;;42.40;;
34204;SDS011;20471;49.680;20.074;2022-11-15T05:38:49;47.23;;;28.85;;
34204;SDS011;20471;49.680;20.074;2022-11-15T05:41:17;42.38;;;27.50;;
34204;SDS011;20471;49.680;20.074;2022-11-15T05:43:47;40.25;;;24.63;;
34204;SDS011;20471;49.680;20.074;2022-11-15T05:46:16;39.53;;;24.10;;
34204;SDS011;20471;49.680;20.074;2022-11-15T05:48:44;64.80;;;35.30;;
34204;SDS011;20471;49.680;20.074;2022-11-15T05:51:15;68.85;;;39.53;;
34204;SDS011;20471;49.680;20.074;2022-11-15T05:53:44;60.43;;;34.78;;
34204;SDS011;20471;49.680;20.074;2022-11-15T05:56:12;51.15;;;30.37;;
34204;SDS011;20471;49.680;20.074;2022-11-15T05:58:39;63.25;;;35.95;;
34204;SDS011;20471;49.680;20.074;2022-11-15T06:01:06;53.80;;;33.67;;
34204;SDS011;20471;49.680;20.074;2022-11-15T06:03:33;49.08;;;30.88;;
34204;SDS011;20471;49.680;20.074;2022-11-15T06:06:00;50.20;;;30.80;;
34204;SDS011;20471;49.680;20.074;2022-11-15T06:08:27;48.23;;;30.20;;
34204;SDS011;20471;49.680;20.074;2022-11-15T06:10:53;60.10;;;37.28;;
34204;SDS011;20471;49.680;20.074;2022-11-15T06:13:20;55.38;;;35.65;;
34204;SDS011;20471;49.680;20.074;2022-11-15T06:15:46;52.78;;;32.10;;
34204;SDS011;20471;49.680;20.074;2022-11-15T06:18:13;43.65;;;27.80;;
34204;SDS011;20471;49.680;20.074;2022-11-15T06:20:39;39.65;;;25.90;;
34204;SDS011;20471;49.680;20.074;2022-11-15T06:23:06;35.30;;;22.85;;
34204;SDS011;20471;49.680;20.074;2022-11-15T06:25:32;35.90;;;21.80;;
34204;SDS011;20471;49.680;20.074;2022-11-15T06:27:59;36.20;;;23.45;;
34204;SDS011;20471;49.680;20.074;2022-11-15T06:30:26;48.10;;;28.15;;
34204;SDS011;20471;49.680;20.074;2022-11-15T06:35:26;52.98;;;35.95;;
34204;SDS011;20471;49.680;20.074;2022-11-15T06:37:54;61.13;;;39.25;;
34204;SDS011;20471;49.680;20.074;2022-11-15T06:40:21;65.67;;;41.08;;
34204;SDS011;20471;49.680;20.074;2022-11-15T06:42:47;64.05;;;40.55;;
34204;SDS011;20471;49.680;20.074;2022-11-15T06:45:14;79.65;;;39.83;;
34204;SDS011;20471;49.680;20.074;2022-11-15T06:47:44;85.72;;;43.00;;
34204;SDS011;20471;49.680;20.074;2022-11-15T06:50:12;72.30;;;41.37;;
34204;SDS011;20471;49.680;20.074;2022-11-15T06:52:38;68.62;;;43.05;;
34204;SDS011;20471;49.680;20.074;2022-11-15T06:55:05;65.40;;;39.95;;
34204;SDS011;20471;49.680;20.074;2022-11-15T06:57:34;62.53;;;39.25;;
34204;SDS011;20471;49.680;20.074;2022-11-15T07:00:02;66.22;;;40.05;;
34204;SDS011;20471;49.680;20.074;2022-11-15T07:02:30;59.20;;;38.65;;
34204;SDS011;20471;49.680;20.074;2022-11-15T07:04:57;57.50;;;41.23;;
34204;SDS011;20471;49.680;20.074;2022-11-15T07:07:23;60.25;;;40.43;;
34204;SDS011;20471;49.680;20.074;2022-11-15T07:09:50;61.65;;;39.83;;
34204;SDS011;20471;49.680;20.074;2022-11-15T07:12:16;63.50;;;40.03;;
34204;SDS011;20471;49.680;20.074;2022-11-15T07:14:43;66.15;;;41.58;;
34204;SDS011;20471;49.680;20.074;2022-11-15T07:17:10;60.80;;;41.83;;
34204;SDS011;20471;49.680;20.074;2022-11-15T07:19:36;62.25;;;39.58;;
34204;SDS011;20471;49.680;20.074;2022-11-15T07:22:03;61.25;;;44.30;;
34204;SDS011;20471;49.680;20.074;2022-11-15T07:24:29;58.42;;;40.52;;
34204;SDS011;20471;49.680;20.074;2022-11-15T07:26:56;60.25;;;41.45;;
34204;SDS011;20471;49.680;20.074;2022-11-15T07:29:23;60.67;;;41.70;;
34204;SDS011;20471;49.680;20.074;2022-11-15T07:31:49;60.00;;;41.23;;
34204;SDS011;20471;49.680;20.074;2022-11-15T07:34:16;63.78;;;42.35;;
34204;SDS011;20471;49.680;20.074;2022-11-15T07:36:42;61.30;;;40.23;;
34204;SDS011;20471;49.680;20.074;2022-11-15T07:39:09;60.95;;;41.50;;
34204;SDS011;20471;49.680;20.074;2022-11-15T07:41:37;57.33;;;39.40;;
34204;SDS011;20471;49.680;20.074;2022-11-15T07:44:04;67.80;;;44.85;;
34204;SDS011;20471;49.680;20.074;2022-11-15T07:46:31;65.75;;;44.45;;
34204;SDS011;20471;49.680;20.074;2022-11-15T07:48:57;68.57;;;44.10;;
34204;SDS011;20471;49.680;20.074;2022-11-15T07:51:24;65.45;;;42.00;;
34204;SDS011;20471;49.680;20.074;2022-11-15T07:53:51;65.80;;;42.85;;
34204;SDS011;20471;49.680;20.074;2022-11-15T07:56:17;70.62;;;44.30;;
34204;SDS011;20471;49.680;20.074;2022-11-15T07:58:45;77.08;;;52.03;;
34204;SDS011;20471;49.680;20.074;2022-11-15T08:01:12;87.37;;;54.63;;
34204;SDS011;20471;49.680;20.074;2022-11-15T08:03:39;76.15;;;49.08;;
34204;SDS011;20471;49.680;20.074;2022-11-15T08:06:05;67.53;;;42.00;;
34204;SDS011;20471;49.680;20.074;2022-11-15T08:08:32;71.40;;;42.17;;
34204;SDS011;20471;49.680;20.074;2022-11-15T08:10:58;72.55;;;44.73;;
34204;SDS011;20471;49.680;20.074;2022-11-15T08:13:25;69.92;;;42.95;;
34204;SDS011;20471;49.680;20.074;2022-11-15T08:15:52;56.75;;;35.43;;
34204;SDS011;20471;49.680;20.074;2022-11-15T08:18:23;55.58;;;34.18;;
34204;SDS011;20471;49.680;20.074;2022-11-15T08:20:50;56.80;;;35.45;;
34204;SDS011;20471;49.680;20.074;2022-11-15T08:23:16;58.20;;;36.60;;
34204;SDS011;20471;49.680;20.074;2022-11-15T08:25:43;64.17;;;37.53;;
34204;SDS011;20471;49.680;20.074;2022-11-15T08:28:10;62.05;;;36.60;;
34204;SDS011;20471;49.680;20.074;2022-11-15T08:30:37;60.65;;;33.92;;
34204;SDS011;20471;49.680;20.074;2022-11-15T08:33:09;44.10;;;25.27;;
34204;SDS011;20471;49.680;20.074;2022-11-15T08:35:40;52.08;;;29.80;;
34204;SDS011;20471;49.680;20.074;2022-11-15T08:38:08;49.77;;;29.02;;
34204;SDS011;20471;49.680;20.074;2022-11-15T08:40:35;41.60;;;24.95;;
34204;SDS011;20471;49.680;20.074;2022-11-15T08:43:03;37.60;;;23.05;;
34204;SDS011;20471;49.680;20.074;2022-11-15T08:45:30;39.60;;;23.18;;
34204;SDS011;20471;49.680;20.074;2022-11-15T08:48:00;41.13;;;23.38;;
34204;SDS011;20471;49.680;20.074;2022-11-15T08:50:28;35.60;;;22.93;;
34204;SDS011;20471;49.680;20.074;2022-11-15T08:52:54;41.77;;;23.45;;
34204;SDS011;20471;49.680;20.074;2022-11-15T08:55:21;35.80;;;22.13;;
34204;SDS011;20471;49.680;20.074;2022-11-15T08:57:48;35.45;;;20.85;;
34204;SDS011;20471;49.680;20.074;2022-11-15T09:00:15;34.15;;;19.62;;
34204;SDS011;20471;49.680;20.074;2022-11-15T09:02:42;29.50;;;19.92;;
34204;SDS011;20471;49.680;20.074;2022-11-15T09:05:09;28.27;;;17.85;;
34204;SDS011;20471;49.680;20.074;2022-11-15T09:07:35;24.60;;;15.63;;
34204;SDS011;20471;49.680;20.074;2022-11-15T09:10:02;17.12;;;11.63;;
34204;SDS011;20471;49.680;20.074;2022-11-15T09:12:30;17.05;;;11.40;;
34204;SDS011;20471;49.680;20.074;2022-11-15T09:14:56;18.00;;;11.35;;
34204;SDS011;20471;49.680;20.074;2022-11-15T09:17:23;16.60;;;10.65;;
34204;SDS011;20471;49.680;20.074;2022-11-15T09:19:50;15.98;;;10.45;;
34204;SDS011;20471;49.680;20.074;2022-11-15T09:22:16;14.95;;;9.98;;
34204;SDS011;20471;49.680;20.074;2022-11-15T09:24:43;16.80;;;9.78;;
34204;SDS011;20471;49.680;20.074;2022-11-15T09:27:10;14.50;;;9.68;;
34204;SDS011;20471;49.680;20.074;2022-11-15T09:29:37;15.68;;;9.45;;
34204;SDS011;20471;49.680;20.074;2022-11-15T09:32:06;15.80;;;9.55;;
34204;SDS011;20471;49.680;20.074;2022-11-15T09:34:32;16.15;;;9.30;;
34204;SDS011;20471;49.680;20.074;2022-11-15T09:36:59;11.60;;;7.87;;
34204;SDS011;20471;49.680;20.074;2022-11-15T09:39:26;10.90;;;7.12;;
34204;SDS011;20471;49.680;20.074;2022-11-15T09:47:47;7.87;;;6.72;;
34204;SDS011;20471;49.680;20.074;2022-11-15T09:50:17;7.35;;;5.87;;
34204;SDS011;20471;49.680;20.074;2022-11-15T09:52:47;9.00;;;6.37;;
34204;SDS011;20471;49.680;20.074;2022-11-15T09:55:15;8.00;;;6.20;;
34204;SDS011;20471;49.680;20.074;2022-11-15T10:00:32;9.70;;;5.95;;
34204;SDS011;20471;49.680;20.074;2022-11-15T10:05:42;11.15;;;6.60;;
34204;SDS011;20471;49.680;20.074;2022-11-15T10:08:40;11.95;;;6.65;;
34204;SDS011;20471;49.680;20.074;2022-11-15T10:11:25;10.38;;;6.28;;
34204;SDS011;20471;49.680;20.074;2022-11-15T10:13:56;8.75;;;5.80;;
34204;SDS011;20471;49.680;20.074;2022-11-15T10:19:47;9.13;;;5.50;;
34204;SDS011;20471;49.680;20.074;2022-11-15T10:27:44;6.75;;;5.25;;
34204;SDS011;20471;49.680;20.074;2022-11-15T10:30:29;6.10;;;5.33;;
34204;SDS011;20471;49.680;20.074;2022-11-15T10:32:58;6.83;;;5.17;;
34204;SDS011;20471;49.680;20.074;2022-11-15T10:35:36;8.13;;;5.85;;
34204;SDS011;20471;49.680;20.074;2022-11-15T10:38:06;7.25;;;5.30;;
34204;SDS011;20471;49.680;20.074;2022-11-15T10:40:38;6.00;;;4.60;;
34204;SDS011;20471;49.680;20.074;2022-11-15T10:45:43;7.08;;;4.92;;
34204;SDS011;20471;49.680;20.074;2022-11-15T10:50:48;5.12;;;4.62;;
34204;SDS011;20471;49.680;20.074;2022-11-15T10:53:21;7.42;;;4.60;;
34204;SDS011;20471;49.680;20.074;2022-11-15T10:55:53;6.85;;;4.92;;
34204;SDS011;20471;49.680;20.074;2022-11-15T10:58:31;8.83;;;5.20;;
34204;SDS011;20471;49.680;20.074;2022-11-15T11:03:45;7.17;;;5.15;;
34204;SDS011;20471;49.680;20.074;2022-11-15T11:06:45;6.45;;;5.33;;
34204;SDS011;20471;49.680;20.074;2022-11-15T11:12:09;8.90;;;5.40;;
34204;SDS011;20471;49.680;20.074;2022-11-15T11:14:37;11.97;;;5.40;;
34204;SDS011;20471;49.680;20.074;2022-11-15T11:20:02;9.20;;;5.97;;
34204;SDS011;20471;49.680;20.074;2022-11-15T11:23:00;10.30;;;5.50;;
34204;SDS011;20471;49.680;20.074;2022-11-15T11:28:54;7.00;;;5.30;;
34204;SDS011;20471;49.680;20.074;2022-11-15T11:37:12;10.50;;;6.05;;
34204;SDS011;20471;49.680;20.074;2022-11-15T11:40:16;8.18;;;6.10;;
34204;SDS011;20471;49.680;20.074;2022-11-15T11:46:08;10.00;;;6.12;;
34204;SDS011;20471;49.680;20.074;2022-11-15T11:54:05;9.50;;;6.67;;
34204;SDS011;20471;49.680;20.074;2022-11-15T11:56:41;10.58;;;6.00;;
34204;SDS011;20471;49.680;20.074;2022-11-15T11:59:21;6.70;;;5.47;;
34204;SDS011;20471;49.680;20.074;2022-11-15T12:02:11;8.70;;;6.37;;
34204;SDS011;20471;49.680;20.074;2022-11-15T12:04:48;11.28;;;6.65;;
34204;SDS011;20471;49.680;20.074;2022-11-15T12:07:20;9.98;;;6.28;;
34204;SDS011;20471;49.680;20.074;2022-11-15T12:10:03;7.72;;;5.87;;
34204;SDS011;20471;49.680;20.074;2022-11-15T12:12:52;8.60;;;5.83;;
34204;SDS011;20471;49.680;20.074;2022-11-15T12:15:23;8.83;;;5.45;;
34204;SDS011;20471;49.680;20.074;2022-11-15T12:17:53;9.03;;;5.72;;
34204;SDS011;20471;49.680;20.074;2022-11-15T12:20:23;6.20;;;5.28;;
34204;SDS011;20471;49.680;20.074;2022-11-15T12:22:54;6.45;;;4.95;;
34204;SDS011;20471;49.680;20.074;2022-11-15T12:25:29;7.30;;;6.00;;
34204;SDS011;20471;49.680;20.074;2022-11-15T12:33:57;8.28;;;5.28;;
34204;SDS011;20471;49.680;20.074;2022-11-15T12:39:03;6.85;;;4.92;;
34204;SDS011;20471;49.680;20.074;2022-11-15T12:41:40;5.47;;;4.78;;
34204;SDS011;20471;49.680;20.074;2022-11-15T12:44:11;8.95;;;5.08;;
34204;SDS011;20471;49.680;20.074;2022-11-15T12:54:49;5.35;;;4.72;;
34204;SDS011;20471;49.680;20.074;2022-11-15T13:02:40;7.42;;;5.58;;
34204;SDS011;20471;49.680;20.074;2022-11-15T13:18:32;11.12;;;8.38;;
34204;SDS011;20471;49.680;20.074;2022-11-15T13:21:02;11.05;;;7.40;;
34204;SDS011;20471;49.680;20.074;2022-11-15T13:23:34;10.08;;;7.58;;
34204;SDS011;20471;49.680;20.074;2022-11-15T13:28:46;9.93;;;7.73;;
34204;SDS011;20471;49.680;20.074;2022-11-15T13:34:13;10.40;;;7.50;;
34204;SDS011;20471;49.680;20.074;2022-11-15T13:36:44;10.63;;;7.85;;
34204;SDS011;20471;49.680;20.074;2022-11-15T13:41:58;9.85;;;7.87;;
34204;SDS011;20471;49.680;20.074;2022-11-15T13:47:00;13.53;;;7.50;;
34204;SDS011;20471;49.680;20.074;2022-11-15T13:49:39;11.18;;;7.58;;
34204;SDS011;20471;49.680;20.074;2022-11-15T13:52:12;11.63;;;7.42;;
34204;SDS011;20471;49.680;20.074;2022-11-15T14:00:30;45.17;;;28.75;;
34204;SDS011;20471;49.680;20.074;2022-11-15T14:02:54;128.85;;;75.20;;
34204;SDS011;20471;49.680;20.074;2022-11-15T14:07:55;264.52;;;159.07;;
34204;SDS011;20471;49.680;20.074;2022-11-15T14:10:26;171.72;;;101.90;;
34204;SDS011;20471;49.680;20.074;2022-11-15T14:13:02;140.77;;;84.52;;
34204;SDS011;20471;49.680;20.074;2022-11-15T14:15:34;126.05;;;76.02;;
34204;SDS011;20471;49.680;20.074;2022-11-15T14:18:03;93.05;;;55.08;;
34204;SDS011;20471;49.680;20.074;2022-11-15T14:23:04;57.62;;;36.05;;
34204;SDS011;20471;49.680;20.074;2022-11-15T14:25:55;42.60;;;26.45;;
34204;SDS011;20471;49.680;20.074;2022-11-15T14:30:57;21.48;;;12.85;;
34204;SDS011;20471;49.680;20.074;2022-11-15T14:36:11;18.75;;;11.95;;
34204;SDS011;20471;49.680;20.074;2022-11-15T14:38:42;20.75;;;12.63;;
34204;SDS011;20471;49.680;20.074;2022-11-15T14:43:52;29.45;;;15.00;;
34204;SDS011;20471;49.680;20.074;2022-11-15T14:46:19;35.50;;;16.30;;
34204;SDS011;20471;49.680;20.074;2022-11-15T14:48:46;35.83;;;16.45;;
34204;SDS011;20471;49.680;20.074;2022-11-15T14:51:14;28.92;;;15.30;;
34204;SDS011;20471;49.680;20.074;2022-11-15T14:53:44;35.13;;;17.75;;
34204;SDS011;20471;49.680;20.074;2022-11-15T14:56:12;32.63;;;17.85;;
34204;SDS011;20471;49.680;20.074;2022-11-15T14:58:44;42.53;;;20.52;;
34204;SDS011;20471;49.680;20.074;2022-11-15T15:01:16;33.15;;;18.92;;
34204;SDS011;20471;49.680;20.074;2022-11-15T15:03:51;38.00;;;19.70;;
34204;SDS011;20471;49.680;20.074;2022-11-15T15:06:20;30.35;;;18.80;;
34204;SDS011;20471;49.680;20.074;2022-11-15T15:08:47;41.85;;;23.67;;
34204;SDS011;20471;49.680;20.074;2022-11-15T15:11:22;35.05;;;22.40;;
34204;SDS011;20471;49.680;20.074;2022-11-15T15:13:53;39.80;;;20.85;;
34204;SDS011;20471;49.680;20.074;2022-11-15T15:16:23;46.75;;;22.55;;
34204;SDS011;20471;49.680;20.074;2022-11-15T15:18:50;31.42;;;20.43;;
34204;SDS011;20471;49.680;20.074;2022-11-15T15:21:20;32.10;;;21.07;;
34204;SDS011;20471;49.680;20.074;2022-11-15T15:23:50;34.60;;;20.68;;
34204;SDS011;20471;49.680;20.074;2022-11-15T15:26:19;40.25;;;22.05;;
34204;SDS011;20471;49.680;20.074;2022-11-15T15:28:46;36.23;;;22.13;;
34204;SDS011;20471;49.680;20.074;2022-11-15T15:31:14;37.35;;;22.02;;
34204;SDS011;20471;49.680;20.074;2022-11-15T15:33:40;35.03;;;20.82;;
34204;SDS011;20471;49.680;20.074;2022-11-15T15:36:14;37.53;;;22.00;;
34204;SDS011;20471;49.680;20.074;2022-11-15T15:38:43;33.23;;;22.05;;
34204;SDS011;20471;49.680;20.074;2022-11-15T15:41:16;39.03;;;21.73;;
34204;SDS011;20471;49.680;20.074;2022-11-15T15:43:42;36.65;;;20.80;;
34204;SDS011;20471;49.680;20.074;2022-11-15T15:48:40;37.08;;;21.68;;
34204;SDS011;20471;49.680;20.074;2022-11-15T15:51:07;34.63;;;22.40;;
34204;SDS011;20471;49.680;20.074;2022-11-15T15:53:34;37.53;;;22.62;;
34204;SDS011;20471;49.680;20.074;2022-11-15T15:56:01;33.92;;;21.87;;
34204;SDS011;20471;49.680;20.074;2022-11-15T15:58:27;41.92;;;24.00;;
34204;SDS011;20471;49.680;20.074;2022-11-15T16:00:54;42.50;;;24.43;;
34204;SDS011;20471;49.680;20.074;2022-11-15T16:03:21;39.15;;;23.35;;
34204;SDS011;20471;49.680;20.074;2022-11-15T16:05:49;38.17;;;24.47;;
34204;SDS011;20471;49.680;20.074;2022-11-15T16:08:20;44.48;;;26.10;;
34204;SDS011;20471;49.680;20.074;2022-11-15T16:10:49;42.90;;;25.70;;
34204;SDS011;20471;49.680;20.074;2022-11-15T16:13:16;36.25;;;24.72;;
34204;SDS011;20471;49.680;20.074;2022-11-15T16:15:43;68.87;;;35.80;;
34204;SDS011;20471;49.680;20.074;2022-11-15T16:18:14;49.23;;;29.92;;
34204;SDS011;20471;49.680;20.074;2022-11-15T16:20:44;55.48;;;30.90;;
34204;SDS011;20471;49.680;20.074;2022-11-15T16:23:15;65.08;;;34.40;;
34204;SDS011;20471;49.680;20.074;2022-11-15T16:28:24;78.80;;;41.33;;
34204;SDS011;20471;49.680;20.074;2022-11-15T16:33:31;64.00;;;37.33;;
34204;SDS011;20471;49.680;20.074;2022-11-15T16:35:58;73.35;;;40.08;;
34204;SDS011;20471;49.680;20.074;2022-11-15T16:38:25;66.90;;;37.40;;
34204;SDS011;20471;49.680;20.074;2022-11-15T16:40:51;66.35;;;39.30;;
34204;SDS011;20471;49.680;20.074;2022-11-15T16:43:18;73.75;;;41.15;;
34204;SDS011;20471;49.680;20.074;2022-11-15T16:45:44;59.48;;;37.40;;
34204;SDS011;20471;49.680;20.074;2022-11-15T16:48:19;63.25;;;38.20;;
34204;SDS011;20471;49.680;20.074;2022-11-15T16:50:53;76.28;;;40.70;;
34204;SDS011;20471;49.680;20.074;2022-11-15T16:53:24;72.92;;;41.20;;
34204;SDS011;20471;49.680;20.074;2022-11-15T16:55:52;89.62;;;49.67;;
34204;SDS011;20471;49.680;20.074;2022-11-15T16:58:20;93.60;;;49.90;;
34204;SDS011;20471;49.680;20.074;2022-11-15T17:00:50;81.25;;;50.43;;
34204;SDS011;20471;49.680;20.074;2022-11-15T17:03:24;83.50;;;51.68;;
34204;SDS011;20471;49.680;20.074;2022-11-15T17:05:51;70.97;;;45.45;;
34204;SDS011;20471;49.680;20.074;2022-11-15T17:08:18;78.70;;;46.13;;
34204;SDS011;20471;49.680;20.074;2022-11-15T17:10:46;79.17;;;48.00;;
34204;SDS011;20471;49.680;20.074;2022-11-15T17:13:13;80.87;;;48.50;;
34204;SDS011;20471;49.680;20.074;2022-11-15T17:15:40;85.50;;;49.60;;
34204;SDS011;20471;49.680;20.074;2022-11-15T17:18:09;78.83;;;48.15;;
34204;SDS011;20471;49.680;20.074;2022-11-15T17:20:39;78.83;;;49.10;;
34204;SDS011;20471;49.680;20.074;2022-11-15T17:25:40;80.20;;;48.73;;
34204;SDS011;20471;49.680;20.074;2022-11-15T17:28:07;87.35;;;51.77;;
34204;SDS011;20471;49.680;20.074;2022-11-15T17:30:34;91.65;;;57.15;;